Time;durP1;ratioP1;P1;durP2;ratioP2;P2;SDS_P1;SDS_P2;PMS_P1;PMS_P2;Temp;Humidity;BMP_temperature;BMP_pressure;BME280_temperature;BME280_humidity;BME280_pressure;Samples;Min_cycle;Max_cycle;Signal;HPM_P1;HPM_P2
2024/01/29 00:01:51;;;;;;;4.97;2.78;;;;;;;-1.07;65.41;101232.31;10457212;28;20036;-63
2024/01/29 00:06:53;;;;;;;9.90;3.47;;;;;;;-1.02;65.16;101228.03;10485290;28;20044;-63
2024/01/29 00:11:56;;;;;;;7.75;3.15;;;;;;;-1.01;65.10;101219.50;10485588;28;20028;-63
2024/01/29 00:17:00;;;;;;;9.50;4.70;;;;;;;-0.93;65.12;101217.84;10488690;28;20415;-63
2024/01/29 00:22:02;;;;;;;8.38;3.63;;;;;;;-0.87;64.81;101224.72;10487395;28;20121;-63
2024/01/29 00:27:04;;;;;;;6.20;3.35;;;;;;;-0.95;64.67;101229.81;10490232;28;20056;-63
2024/01/29 00:32:06;;;;;;;5.70;3.15;;;;;;;-0.95;64.83;101234.09;10466111;28;20047;-63
2024/01/29 00:37:09;;;;;;;6.35;3.55;;;;;;;-0.96;64.71;101230.66;10482771;28;20042;-63
2024/01/29 00:42:11;;;;;;;7.57;3.53;;;;;;;-1.11;64.87;101228.00;10471202;28;20049;-62
2024/01/29 00:47:13;;;;;;;7.25;3.30;;;;;;;-1.16;64.80;101227.94;10483051;28;20033;-63
2024/01/29 00:52:15;;;;;;;6.47;3.15;;;;;;;-1.17;64.93;101228.78;10482617;28;20076;-62
2024/01/29 00:57:17;;;;;;;6.78;3.40;;;;;;;-1.21;64.90;101242.44;10464789;28;20040;-62
2024/01/29 01:02:19;;;;;;;5.75;3.45;;;;;;;-1.23;64.77;101230.47;10483368;28;20045;-63
2024/01/29 01:07:21;;;;;;;7.18;3.45;;;;;;;-1.20;64.99;101233.03;10480951;28;20044;-64
2024/01/29 01:12:23;;;;;;;6.22;3.13;;;;;;;-1.23;64.77;101227.88;10483052;28;20055;-63
2024/01/29 01:17:25;;;;;;;5.25;2.95;;;;;;;-1.26;65.01;101225.28;10482540;28;20045;-63
2024/01/29 01:22:27;;;;;;;5.28;2.85;;;;;;;-1.20;65.07;101220.19;10482355;28;20496;-63
2024/01/29 01:27:29;;;;;;;8.60;3.20;;;;;;;-1.22;64.96;101215.06;10464293;28;20431;-63
2024/01/29 01:32:31;;;;;;;8.23;3.17;;;;;;;-1.26;65.09;101225.28;10481537;28;20808;-63
2024/01/29 01:37:33;;;;;;;5.68;2.92;;;;;;;-1.29;64.94;101220.16;10481220;28;20041;-64
2024/01/29 01:42:39;;;;;;;7.57;3.10;;;;;;;-1.49;64.60;101214.81;10482287;28;20076;-64
2024/01/29 01:47:41;;;;;;;6.72;2.30;;;;;;;-1.62;64.92;101215.56;10479391;28;20045;-63
2024/01/29 01:52:43;;;;;;;5.18;2.30;;;;;;;-1.73;65.01;101218.84;10501614;28;20044;-63
2024/01/29 01:57:45;;;;;;;4.78;2.40;;;;;;;-1.75;65.69;101220.53;10480623;28;20058;-63
2024/01/29 02:02:47;;;;;;;6.63;2.85;;;;;;;-1.66;65.54;101225.75;10488139;28;20511;-63
2024/01/29 02:07:50;;;;;;;5.32;3.00;;;;;;;-1.57;65.38;101228.41;10491649;28;20114;-63
2024/01/29 02:12:53;;;;;;;4.22;2.38;;;;;;;-1.50;65.27;101217.38;10486834;28;20127;-64
2024/01/29 02:17:55;;;;;;;4.28;2.47;;;;;;;-1.52;65.20;101207.09;10486595;28;20044;-64
2024/01/29 02:23:03;;;;;;;8.00;2.92;;;;;;;-1.54;64.85;101202.78;10479939;28;20044;-64
2024/01/29 02:28:05;;;;;;;6.75;2.63;;;;;;;-1.53;64.88;101207.94;10480337;28;20046;-65
2024/01/29 02:33:07;;;;;;;7.05;2.95;;;;;;;-1.68;65.16;101215.50;10484529;28;20048;-64
2024/01/29 02:38:10;;;;;;;6.00;3.00;;;;;;;-1.67;65.31;101213.78;10479687;28;20057;-64
2024/01/29 02:43:12;;;;;;;5.13;2.67;;;;;;;-1.64;65.20;101208.69;10465365;28;20044;-64
2024/01/29 02:48:14;;;;;;;5.63;2.47;;;;;;;-1.60;65.39;101213.88;10484319;28;20044;-64
2024/01/29 02:53:16;;;;;;;5.18;2.88;;;;;;;-1.50;65.09;101199.41;10485085;28;20127;-64
2024/01/29 02:58:18;;;;;;;4.25;2.30;;;;;;;-1.45;64.93;101202.91;10480520;28;20088;-63
2024/01/29 03:03:20;;;;;;;3.33;2.22;;;;;;;-1.46;64.88;101208.84;10476922;28;20049;-64
2024/01/29 03:08:22;;;;;;;4.68;2.72;;;;;;;-1.41;64.97;101217.47;10480649;28;20067;-63
2024/01/29 03:13:24;;;;;;;5.53;2.50;;;;;;;-1.39;64.77;101203.78;10480097;28;20094;-64
2024/01/29 03:18:26;;;;;;;7.05;2.95;;;;;;;-1.41;64.72;101204.63;10479195;28;20040;-63
2024/01/29 03:23:28;;;;;;;4.55;2.78;;;;;;;-1.44;64.65;101200.34;10459936;28;20044;-63
2024/01/29 03:28:31;;;;;;;6.93;3.13;;;;;;;-1.42;64.63;101195.22;10461157;28;20056;-63
2024/01/29 03:33:34;;;;;;;6.28;2.47;;;;;;;-1.47;64.66;101189.19;10478217;28;20040;-64
2024/01/29 03:38:36;;;;;;;7.43;2.63;;;;;;;-1.51;64.60;101182.31;10460780;28;20075;-64
2024/01/29 03:43:38;;;;;;;12.30;2.50;;;;;;;-1.48;64.89;101178.06;10475743;28;20043;-63
2024/01/29 03:48:40;;;;;;;3.58;2.25;;;;;;;-1.44;64.72;101184.94;10477943;28;20054;-64
2024/01/29 03:53:42;;;;;;;5.25;2.40;;;;;;;-1.41;64.62;101187.50;10477721;28;20044;-63
2024/01/29 03:58:44;;;;;;;6.25;2.72;;;;;;;-1.39;64.59;101187.56;10476874;28;20052;-63
2024/01/29 04:03:46;;;;;;;3.28;2.20;;;;;;;-1.42;64.46;101183.25;10473952;28;20116;-64
2024/01/29 04:08:48;;;;;;;6.72;2.90;;;;;;;-1.46;64.65;101193.47;10476334;28;20057;-64
2024/01/29 04:13:50;;;;;;;6.60;2.60;;;;;;;-1.43;64.84;101190.94;10480952;28;20132;-63
2024/01/29 04:18:52;;;;;;;6.00;2.58;;;;;;;-1.40;64.65;101201.22;10461914;28;20524;-63
2024/01/29 04:23:55;;;;;;;5.70;2.85;;;;;;;-1.37;64.72;101196.13;10483302;28;20045;-64
2024/01/29 04:28:56;;;;;;;4.20;2.15;;;;;;;-1.43;64.59;101203.75;10457982;28;21828;-63
2024/01/29 04:33:58;;;;;;;4.13;2.42;;;;;;;-1.45;64.72;101203.72;10478820;28;21150;-63
2024/01/29 04:39:01;;;;;;;4.32;2.55;;;;;;;-1.51;64.65;101202.84;10480409;28;20059;-64
2024/01/29 04:44:03;;;;;;;5.70;2.55;;;;;;;-1.56;64.64;101201.91;10469816;28;20497;-63
2024/01/29 04:49:05;;;;;;;3.40;1.95;;;;;;;-1.58;64.77;101195.91;10483449;28;20063;-64
2024/01/29 04:54:07;;;;;;;6.28;2.97;;;;;;;-1.59;64.77;101204.44;10499909;28;20495;-63
2024/01/29 04:59:09;;;;;;;5.47;2.97;;;;;;;-1.62;64.63;101201.88;10488424;28;20057;-64
2024/01/29 05:04:11;;;;;;;4.00;2.25;;;;;;;-1.59;64.58;101204.44;10483454;28;20071;-65
2024/01/29 05:09:13;;;;;;;3.95;2.53;;;;;;;-1.64;64.70;101204.44;10487289;28;20117;-63
2024/01/29 05:14:15;;;;;;;4.07;2.42;;;;;;;-1.65;64.30;101212.06;10468668;28;20802;-63
2024/01/29 05:19:17;;;;;;;6.40;2.78;;;;;;;-1.72;64.69;101212.88;10489352;28;20153;-63
2024/01/29 05:24:20;;;;;;;5.75;2.75;;;;;;;-1.79;64.83;101216.22;10486855;28;20500;-64
2024/01/29 05:29:21;;;;;;;6.30;2.67;;;;;;;-1.73;64.80;101211.13;10468865;28;20600;-63
2024/01/29 05:34:23;;;;;;;4.30;2.25;;;;;;;-1.73;64.61;101217.13;10485874;28;20559;-64
2024/01/29 05:39:26;;;;;;;5.57;2.60;;;;;;;-1.69;64.58;101218.03;10482081;28;20090;-63
2024/01/29 05:44:28;;;;;;;5.95;2.83;;;;;;;-1.69;64.49;101205.19;10485317;28;20203;-63
2024/01/29 05:49:30;;;;;;;4.82;2.10;;;;;;;-1.70;64.84;101211.19;10464192;28;20444;-63
2024/01/29 05:54:33;;;;;;;4.28;2.60;;;;;;;-1.62;64.70;101210.44;10483805;28;20637;-64
2024/01/29 05:59:35;;;;;;;4.18;2.55;;;;;;;-1.60;64.79;101207.88;10483639;28;20051;-63
2024/01/29 06:04:36;;;;;;;4.00;2.70;;;;;;;-1.55;64.77;101207.06;10482753;28;20054;-63
2024/01/29 06:09:39;;;;;;;4.10;2.58;;;;;;;-1.49;64.81;101208.84;10462470;28;20055;-63
2024/01/29 06:14:41;;;;;;;4.20;2.45;;;;;;;-1.49;64.92;101203.72;10480178;28;20134;-64
2024/01/29 06:19:42;;;;;;;5.65;2.83;;;;;;;-1.33;64.82;101213.25;10480580;28;20528;-63
2024/01/29 06:25:05;;;;;;;5.93;2.53;;;;;;;-1.19;64.47;101214.25;10479450;28;20062;-63
2024/01/29 06:30:07;;;;;;;5.15;2.65;;;;;;;-1.21;64.24;101229.59;10484865;28;20161;-64
2024/01/29 06:35:10;;;;;;;6.03;2.72;;;;;;;-1.23;64.24;101228.72;10486415;28;20074;-64
2024/01/29 06:40:12;;;;;;;7.18;3.15;;;;;;;-1.23;64.46;101238.16;10487153;28;20981;-63
2024/01/29 06:45:14;;;;;;;5.68;2.67;;;;;;;-1.19;64.35;101240.75;10481923;28;20085;-63
2024/01/29 06:50:16;;;;;;;3.72;2.30;;;;;;;-1.22;64.41;101245.88;10479150;28;20062;-63
2024/01/29 06:55:20;;;;;;;6.68;2.80;;;;;;;-1.12;64.42;101253.66;10486532;28;20045;-64
2024/01/29 07:00:22;;;;;;;5.78;2.55;;;;;;;-1.04;64.17;101260.56;10460516;28;20056;-63
2024/01/29 07:05:24;;;;;;;4.30;2.58;;;;;;;-0.96;64.00;101261.47;10483646;28;20393;-63
2024/01/29 07:10:26;;;;;;;3.17;2.03;;;;;;;-0.91;63.86;101264.94;10477203;28;20048;-64
2024/01/29 07:15:28;;;;;;;4.68;2.25;;;;;;;-0.95;63.95;101268.34;10481981;28;20044;-64
2024/01/29 07:20:38;;;;;;;5.38;2.47;;;;;;;-0.90;63.83;101264.09;10486438;28;20046;-64
2024/01/29 07:25:40;;;;;;;6.38;2.72;;;;;;;-0.83;63.77;101267.56;10478491;28;20041;-64
2024/01/29 07:30:43;;;;;;;5.38;2.90;;;;;;;-0.84;63.63;101287.25;10477501;28;20052;-63
2024/01/29 07:35:45;;;;;;;4.00;2.13;;;;;;;-0.79;63.64;101269.31;10477608;28;20152;-63
2024/01/29 07:40:47;;;;;;;6.25;2.95;;;;;;;-0.72;63.33;101274.50;10459415;28;20119;-64
2024/01/29 07:45:49;;;;;;;8.23;3.17;;;;;;;-0.72;63.31;101271.94;10484551;28;20921;-69
2024/01/29 07:50:51;;;;;;;6.63;3.03;;;;;;;-0.71;63.48;101273.66;10459321;28;20045;-68
2024/01/29 07:55:53;;;;;;;4.45;2.30;;;;;;;-0.67;63.74;101275.41;10478888;28;20040;-68
2024/01/29 08:00:55;;;;;;;7.45;2.78;;;;;;;-0.60;63.32;101274.59;10493551;28;20079;-68
2024/01/29 08:05:57;;;;;;;4.68;2.70;;;;;;;-0.57;63.38;101271.19;10478948;28;20045;-68
2024/01/29 08:11:00;;;;;;;5.85;2.85;;;;;;;-0.56;63.37;101267.78;10475742;28;20536;-67
2024/01/29 08:16:03;;;;;;;7.00;3.13;;;;;;;-0.32;63.45;101273.91;10481969;28;20059;-67
2024/01/29 08:21:06;;;;;;;6.78;2.90;;;;;;;0.17;62.74;101280.16;10479116;28;20481;-68
2024/01/29 08:26:09;;;;;;;4.70;2.33;;;;;;;0.19;62.53;101282.72;10479938;28;20131;-67
2024/01/29 08:31:11;;;;;;;6.88;3.22;;;;;;;0.15;62.83;101279.28;10490687;28;20114;-67
2024/01/29 08:36:15;;;;;;;6.53;3.15;;;;;;;0.24;63.07;101276.72;10485218;28;20106;-67
2024/01/29 08:41:17;;;;;;;7.60;2.72;;;;;;;0.45;62.65;101275.94;10485144;28;20054;-67
2024/01/29 08:46:19;;;;;;;8.25;2.88;;;;;;;0.60;62.58;101277.69;10479070;28;20059;-67
2024/01/29 08:51:21;;;;;;;4.68;2.45;;;;;;;0.70;62.33;101280.28;10471268;28;20048;-67
2024/01/29 08:56:24;;;;;;;5.63;2.50;;;;;;;0.78;62.18;101278.59;10464618;28;20055;-67
2024/01/29 09:01:25;;;;;;;7.20;3.28;;;;;;;0.91;62.29;101282.03;10463467;28;20052;-68
2024/01/29 09:06:28;;;;;;;8.52;3.83;;;;;;;1.02;62.02;101280.31;10480199;28;20299;-68
2024/01/29 09:11:30;;;;;;;8.50;4.40;;;;;;;1.06;62.27;101289.75;10480512;28;20063;-68
2024/01/29 09:16:32;;;;;;;9.05;4.00;;;;;;;1.18;62.21;101280.31;10482541;28;20047;-68
2024/01/29 09:21:36;;;;;;;8.77;4.50;;;;;;;1.24;62.46;101293.22;10483019;28;20055;-68
2024/01/29 09:26:38;;;;;;;5.97;3.28;;;;;;;1.47;62.27;101293.19;10481950;28;20044;-68
2024/01/29 09:31:44;;;;;;;10.00;3.20;;;;;;;1.74;61.90;101293.16;10467896;28;20055;-68
2024/01/29 09:36:46;;;;;;;4.65;2.83;;;;;;;1.93;61.53;101296.53;10463967;28;20142;-69
2024/01/29 09:41:50;;;;;;;7.28;2.67;;;;;;;1.99;61.71;101281.88;10482235;28;20044;-68
2024/01/29 09:46:52;;;;;;;6.38;3.20;;;;;;;2.14;61.37;101281.84;10484462;28;20550;-69
2024/01/29 09:51:55;;;;;;;3.85;2.47;;;;;;;2.32;61.47;101290.38;10465881;28;20048;-68
2024/01/29 09:56:58;;;;;;;6.45;3.50;;;;;;;2.47;61.28;101288.56;10482368;28;20501;-69
2024/01/29 10:02:03;;;;;;;5.22;3.05;;;;;;;2.49;60.70;101289.41;10479114;28;20041;-69
2024/01/29 10:07:05;;;;;;;8.50;3.85;;;;;;;2.69;60.79;101299.63;10478511;28;20045;-69
2024/01/29 10:12:08;;;;;;;7.38;4.03;;;;;;;2.60;60.01;101303.13;10463489;28;20040;-69
2024/01/29 10:17:09;;;;;;;6.30;4.00;;;;;;;2.77;60.53;101300.44;10480123;28;20054;-68
2024/01/29 10:22:12;;;;;;;8.77;4.38;;;;;;;2.78;60.61;101305.63;10486822;28;20147;-69
2024/01/29 10:27:15;;;;;;;7.95;4.00;;;;;;;2.92;60.16;101308.97;10480060;28;20128;-68
2024/01/29 10:32:19;;;;;;;5.82;3.17;;;;;;;3.11;60.04;101298.50;10479510;28;20418;-68
2024/01/29 10:37:21;;;;;;;6.93;3.63;;;;;;;3.39;59.66;101302.56;10485993;28;20052;-71
2024/01/29 10:42:28;;;;;;;8.23;4.78;;;;;;;3.62;59.18;101293.69;10458112;28;20150;-65
2024/01/29 10:47:41;;;;;;;7.53;3.30;;;;;;;3.63;59.04;101285.09;10461223;28;20537;-68
2024/01/29 10:52:47;;;;;;;8.57;4.35;;;;;;;3.86;58.42;101285.72;10478710;28;20037;-67
2024/01/29 10:57:50;;;;;;;6.82;3.97;;;;;;;4.11;58.59;101290.63;10478518;28;20075;-68
2024/01/29 11:02:55;;;;;;;8.10;4.00;;;;;;;4.26;58.46;101280.94;10476598;28;20380;-68
2024/01/29 11:07:58;;;;;;;7.53;4.30;;;;;;;4.46;57.88;101272.91;10473437;28;20040;-68
2024/01/29 11:13:04;;;;;;;7.53;2.92;;;;;;;4.67;57.46;101262.25;10480167;28;20039;-68
2024/01/29 11:18:09;;;;;;;10.13;4.68;;;;;;;4.83;56.83;101262.88;10479394;28;20131;-68
2024/01/29 11:23:12;;;;;;;8.25;3.67;;;;;;;4.96;56.76;101265.28;10457775;28;20047;-67
2024/01/29 11:28:26;;;;;;;7.60;3.90;;;;;;;5.04;56.53;101250.44;10462993;28;20105;-68
2024/01/29 11:33:29;;;;;;;6.90;4.05;;;;;;;5.13;56.59;101262.38;10477263;28;20036;-66
2024/01/29 11:38:31;;;;;;;9.10;4.03;;;;;;;5.17;55.69;101248.47;10477185;28;20458;-66
2024/01/29 11:43:33;;;;;;;7.90;3.65;;;;;;;5.28;56.13;101244.84;10483769;28;20401;-66
2024/01/29 11:48:35;;;;;;;7.55;3.70;;;;;;;5.22;56.14;101241.50;10477456;28;20052;-67
2024/01/29 11:53:38;;;;;;;8.60;4.03;;;;;;;5.21;56.06;101231.97;10477082;28;20052;-67
2024/01/29 11:58:39;;;;;;;7.82;4.25;;;;;;;5.29;56.27;101223.19;10478875;28;20404;-67
2024/01/29 12:03:48;;;;;;;7.80;4.25;;;;;;;5.42;56.08;101214.31;10460189;28;20405;-67
2024/01/29 12:08:52;;;;;;;6.47;3.97;;;;;;;5.45;55.95;101218.59;10461479;28;20174;-67
2024/01/29 12:13:57;;;;;;;8.15;4.10;;;;;;;5.50;55.85;101215.03;10476051;28;20045;-67
2024/01/29 12:18:59;;;;;;;10.02;4.38;;;;;;;5.54;55.75;101210.63;10458984;28;20800;-67
2024/01/29 12:24:02;;;;;;;8.77;4.63;;;;;;;5.54;55.75;101208.03;10474546;28;20469;-67
2024/01/29 12:29:05;;;;;;;12.23;4.32;;;;;;;5.60;55.76;101201.88;10460495;28;20109;-68
2024/01/29 12:34:08;;;;;;;10.35;4.10;;;;;;;5.63;55.89;101200.09;10460154;28;20056;-67
2024/01/29 12:39:11;;;;;;;9.00;4.13;;;;;;;5.71;55.75;101205.13;10475803;28;20758;-66
2024/01/29 12:44:13;;;;;;;9.65;4.60;;;;;;;5.87;55.39;101202.19;10458481;28;20068;-67
2024/01/29 12:49:16;;;;;;;8.52;4.25;;;;;;;6.07;55.36;101199.16;10477036;28;20192;-68
2024/01/29 12:54:18;;;;;;;7.40;4.22;;;;;;;6.08;55.33;101195.69;10476724;28;20477;-68
2024/01/29 12:59:21;;;;;;;8.48;4.65;;;;;;;6.12;55.05;101185.19;10475957;28;20412;-67
2024/01/29 13:04:23;;;;;;;12.77;4.13;;;;;;;6.13;55.08;101173.06;10481068;28;20059;-67
2024/01/29 13:09:26;;;;;;;8.98;4.28;;;;;;;6.34;55.11;101180.44;10480576;28;20596;-67
2024/01/29 13:14:28;;;;;;;8.00;3.85;;;;;;;6.60;54.79;101169.41;10479698;28;20037;-66
2024/01/29 13:19:30;;;;;;;8.48;4.40;;;;;;;6.81;54.05;101167.16;10464080;28;20040;-66
2024/01/29 13:24:32;;;;;;;7.72;4.40;;;;;;;6.85;54.38;101168.78;10495818;27;20040;-66
2024/01/29 13:29:34;;;;;;;7.50;4.63;;;;;;;6.96;54.45;101160.69;10461301;28;20054;-67
2024/01/29 13:34:36;;;;;;;8.93;4.63;;;;;;;7.04;54.40;101161.38;10480844;28;20713;-67
2024/01/29 13:39:38;;;;;;;11.52;5.32;;;;;;;7.25;54.20;101162.56;10480024;28;20041;-67
2024/01/29 13:44:40;;;;;;;8.50;4.85;;;;;;;7.33;54.11;101161.47;10462903;28;20044;-64
2024/01/29 13:49:42;;;;;;;8.95;4.90;;;;;;;7.35;54.04;101164.88;10480236;28;20040;-70
2024/01/29 14:00:28;;;;;;;9.60;4.75;;;;;;;7.37;54.00;101160.47;6864298;26;20077;-77
2024/01/29 14:05:31;;;;;;;11.15;5.25;;;;;;;7.41;54.10;101166.44;10519764;28;20501;-77
2024/01/29 14:10:35;;;;;;;9.45;4.57;;;;;;;7.52;54.10;101167.00;10517294;28;20040;-77
2024/01/29 14:15:38;;;;;;;9.48;4.97;;;;;;;7.48;54.06;101168.84;10499834;28;20082;-78
2024/01/29 14:20:41;;;;;;;8.82;5.03;;;;;;;7.50;54.09;101163.59;10520921;28;20379;-78
2024/01/29 14:25:44;;;;;;;8.15;4.80;;;;;;;7.40;54.22;101157.81;10521998;28;20044;-79
2024/01/29 14:30:46;;;;;;;9.52;4.72;;;;;;;7.49;54.09;101164.50;10481888;28;20048;-79
2024/01/29 14:35:48;;;;;;;8.80;4.47;;;;;;;7.49;54.09;101165.34;10506107;28;20051;-78
2024/01/29 20:56:29;;;;;;;6.68;4.13;;;;;;;2.15;64.30;101274.97;10338648;28;20046;-79
2024/01/29 21:01:32;;;;;;;8.73;4.65;;;;;;;2.21;64.61;101269.78;10351392;28;20046;-80
2024/01/29 21:06:37;;;;;;;7.80;4.43;;;;;;;2.17;64.42;101278.41;10337860;28;20053;-81
2024/01/29 21:11:39;;;;;;;7.95;4.88;;;;;;;2.08;64.55;101276.69;10348167;28;20461;-80
2024/01/29 21:16:44;;;;;;;8.48;4.38;;;;;;;2.01;64.60;101275.00;10295497;28;20526;-79
2024/01/29 21:21:46;;;;;;;6.82;4.25;;;;;;;1.91;64.49;101287.97;10323671;28;20050;-79
2024/01/29 21:26:48;;;;;;;10.13;4.60;;;;;;;1.83;64.60;101279.34;10298311;28;20058;-79
2024/01/29 21:31:50;;;;;;;8.32;3.92;;;;;;;1.81;64.64;101281.06;10296935;28;20054;-79
2024/01/29 21:36:52;;;;;;;8.13;4.40;;;;;;;1.78;64.50;101268.22;10308534;28;20050;-79
2024/01/29 21:41:55;;;;;;;5.75;3.38;;;;;;;1.76;64.73;101275.09;10334541;28;20093;-79
2024/01/29 21:46:57;;;;;;;13.13;4.72;;;;;;;1.72;64.50;101268.22;10299360;28;20062;-78
2024/01/29 21:51:59;;;;;;;10.45;6.50;;;;;;;1.66;64.78;101266.53;10313398;28;20050;-78
2024/01/29 21:57:02;;;;;;;9.98;5.60;;;;;;;1.60;64.93;101263.97;10308487;28;20050;-78
2024/01/29 22:02:04;;;;;;;9.25;4.68;;;;;;;1.62;65.04;101261.38;10322352;28;20084;-78
2024/01/29 22:07:09;;;;;;;8.10;4.38;;;;;;;1.60;64.92;101271.69;10312255;28;20375;-79
2024/01/29 22:12:12;;;;;;;10.07;5.60;;;;;;;1.53;64.87;101263.97;10314433;28;20050;-79
2024/01/29 22:17:19;;;;;;;10.82;5.97;;;;;;;1.41;65.14;101266.56;10297316;28;20062;-79
2024/01/29 22:22:22;;;;;;;7.15;3.95;;;;;;;1.33;65.16;101272.59;10290497;28;20065;-80
2024/01/29 22:27:26;;;;;;;15.73;5.70;;;;;;;1.24;65.32;101274.31;10312486;28;20553;-79
2024/01/29 22:32:32;;;;;;;12.57;5.40;;;;;;;1.20;65.44;101278.59;10322458;28;20064;-79
2024/01/29 22:37:34;;;;;;;8.18;4.35;;;;;;;1.24;65.14;101272.59;10311905;28;20158;-79
2024/01/29 22:42:37;;;;;;;7.80;4.63;;;;;;;1.19;65.49;101279.47;10321670;28;20357;-80
2024/01/29 22:47:39;;;;;;;10.13;4.95;;;;;;;1.19;65.42;101282.06;10312640;28;20054;-80
2024/01/29 22:52:41;;;;;;;8.20;4.28;;;;;;;1.18;65.11;101277.75;10314794;28;20064;-80
2024/01/29 22:57:47;;;;;;;8.27;4.57;;;;;;;1.13;65.27;101273.47;10325138;28;20057;-79
2024/01/29 23:02:49;;;;;;;7.60;3.72;;;;;;;1.08;65.50;101281.19;10324004;28;20065;-80
2024/01/29 23:07:52;;;;;;;10.27;4.63;;;;;;;1.12;65.48;101289.75;10341933;28;20046;-79
2024/01/29 23:12:54;;;;;;;8.98;4.63;;;;;;;1.13;65.40;101294.94;10306946;28;20581;-79
2024/01/29 23:17:56;;;;;;;11.73;5.03;;;;;;;1.07;65.31;101299.22;10306547;28;20485;-79
2024/01/29 23:22:59;;;;;;;7.85;3.92;;;;;;;0.99;65.27;101296.63;10322464;28;20049;-79
2024/01/29 23:28:01;;;;;;;7.18;4.43;;;;;;;0.93;65.52;101291.47;10309258;28;20057;-77
2024/01/29 23:33:03;;;;;;;10.88;4.50;;;;;;;0.92;65.58;101287.19;10323698;28;20068;-79
2024/01/29 23:38:05;;;;;;;8.25;4.65;;;;;;;0.89;65.32;101292.31;10323209;28;20141;-77
2024/01/29 23:43:07;;;;;;;11.35;4.35;;;;;;;0.87;65.63;101285.47;10306299;28;20065;-79
2024/01/29 23:48:09;;;;;;;7.20;4.00;;;;;;;0.82;65.37;101288.03;10338966;28;20050;-80
2024/01/29 23:53:11;;;;;;;9.07;4.68;;;;;;;0.72;65.83;101290.59;10319544;28;20105;-80
2024/01/29 23:58:14;;;;;;;7.22;3.70;;;;;;;0.62;65.81;101292.31;10314201;28;20050;-80
